sensor_id;sensor_type;location;lat;lon;timestamp;temperature;humidity
33699;DHT22;20032;52.436;13.312;2023-04-30T00:00:49;9.60;99.90
33699;DHT22;20032;52.436;13.312;2023-04-30T00:03:14;9.50;99.90
33699;DHT22;20032;52.436;13.312;2023-04-30T00:05:40;9.50;99.90
33699;DHT22;20032;52.436;13.312;2023-04-30T00:08:05;9.60;99.90
33699;DHT22;20032;52.436;13.312;2023-04-30T00:10:31;9.60;99.90
33699;DHT22;20032;52.436;13.312;2023-04-30T00:12:56;9.50;99.90
33699;DHT22;20032;52.436;13.312;2023-04-30T00:15:22;9.40;99.90
33699;DHT22;20032;52.436;13.312;2023-04-30T00:17:47;9.40;99.90
33699;DHT22;20032;52.436;13.312;2023-04-30T00:20:13;9.20;99.90
33699;DHT22;20032;52.436;13.312;2023-04-30T00:22:38;9.00;99.90
33699;DHT22;20032;52.436;13.312;2023-04-30T00:25:04;8.80;99.90
33699;DHT22;20032;52.436;13.312;2023-04-30T00:27:29;8.60;99.90
33699;DHT22;20032;52.436;13.312;2023-04-30T00:29:56;8.50;99.90
33699;DHT22;20032;52.436;13.312;2023-04-30T00:32:22;8.40;99.90
33699;DHT22;20032;52.436;13.312;2023-04-30T00:34:47;8.30;99.90
33699;DHT22;20032;52.436;13.312;2023-04-30T00:37:13;8.30;99.90
33699;DHT22;20032;52.436;13.312;2023-04-30T00:39:38;8.40;99.90
33699;DHT22;20032;52.436;13.312;2023-04-30T00:42:03;8.20;99.90
33699;DHT22;20032;52.436;13.312;2023-04-30T00:44:29;8.20;99.90
33699;DHT22;20032;52.436;13.312;2023-04-30T00:46:54;8.20;99.90
33699;DHT22;20032;52.436;13.312;2023-04-30T00:49:20;8.10;99.90
33699;DHT22;20032;52.436;13.312;2023-04-30T00:51:45;8.00;99.90
33699;DHT22;20032;52.436;13.312;2023-04-30T00:54:11;8.00;99.90
33699;DHT22;20032;52.436;13.312;2023-04-30T00:56:37;8.00;99.90
33699;DHT22;20032;52.436;13.312;2023-04-30T00:59:02;8.10;99.90
33699;DHT22;20032;52.436;13.312;2023-04-30T01:01:28;8.00;99.90
33699;DHT22;20032;52.436;13.312;2023-04-30T01:03:54;7.70;99.90
33699;DHT22;20032;52.436;13.312;2023-04-30T01:06:20;7.70;99.90
33699;DHT22;20032;52.436;13.312;2023-04-30T01:08:46;7.70;99.90
33699;DHT22;20032;52.436;13.312;2023-04-30T01:11:35;7.70;99.90
33699;DHT22;20032;52.436;13.312;2023-04-30T01:14:12;7.90;99.90
33699;DHT22;20032;52.436;13.312;2023-04-30T01:16:47;8.10;99.90
33699;DHT22;20032;52.436;13.312;2023-04-30T01:19:51;8.10;99.90
33699;DHT22;20032;52.436;13.312;2023-04-30T01:28:01;8.20;99.90
33699;DHT22;20032;52.436;13.312;2023-04-30T01:30:30;8.20;99.90
33699;DHT22;20032;52.436;13.312;2023-04-30T01:32:56;8.10;99.90
33699;DHT22;20032;52.436;13.312;2023-04-30T01:35:31;8.10;99.90
33699;DHT22;20032;52.436;13.312;2023-04-30T01:38:42;8.10;99.90
33699;DHT22;20032;52.436;13.312;2023-04-30T01:40:57;8.20;99.90
33699;DHT22;20032;52.436;13.312;2023-04-30T01:44:48;8.10;99.90
33699;DHT22;20032;52.436;13.312;2023-04-30T01:46:29;8.30;99.90
33699;DHT22;20032;52.436;13.312;2023-04-30T01:49:01;8.20;99.90
33699;DHT22;20032;52.436;13.312;2023-04-30T01:51:39;8.10;99.90
33699;DHT22;20032;52.436;13.312;2023-04-30T01:54:12;7.80;99.90
33699;DHT22;20032;52.436;13.312;2023-04-30T01:56:44;7.70;99.90
33699;DHT22;20032;52.436;13.312;2023-04-30T01:59:12;7.70;99.90
33699;DHT22;20032;52.436;13.312;2023-04-30T02:01:39;7.70;99.90
33699;DHT22;20032;52.436;13.312;2023-04-30T02:04:04;7.70;99.90
33699;DHT22;20032;52.436;13.312;2023-04-30T02:06:29;7.70;99.90
33699;DHT22;20032;52.436;13.312;2023-04-30T02:08:56;7.70;99.90
33699;DHT22;20032;52.436;13.312;2023-04-30T02:11:26;7.60;99.90
33699;DHT22;20032;52.436;13.312;2023-04-30T02:13:52;7.50;99.90
33699;DHT22;20032;52.436;13.312;2023-04-30T02:16:17;7.70;99.90
33699;DHT22;20032;52.436;13.312;2023-04-30T02:18:44;7.80;99.90
33699;DHT22;20032;52.436;13.312;2023-04-30T02:21:09;7.70;99.90
33699;DHT22;20032;52.436;13.312;2023-04-30T02:23:35;7.50;99.90
33699;DHT22;20032;52.436;13.312;2023-04-30T02:26:00;7.40;99.90
33699;DHT22;20032;52.436;13.312;2023-04-30T02:28:27;7.20;99.90
33699;DHT22;20032;52.436;13.312;2023-04-30T02:30:52;7.30;99.90
33699;DHT22;20032;52.436;13.312;2023-04-30T02:33:18;7.30;99.90
33699;DHT22;20032;52.436;13.312;2023-04-30T02:35:43;7.40;99.90
33699;DHT22;20032;52.436;13.312;2023-04-30T02:38:09;7.40;99.90
33699;DHT22;20032;52.436;13.312;2023-04-30T02:40:34;7.30;99.90
33699;DHT22;20032;52.436;13.312;2023-04-30T02:43:00;7.40;99.90
33699;DHT22;20032;52.436;13.312;2023-04-30T02:45:25;7.30;99.90
33699;DHT22;20032;52.436;13.312;2023-04-30T02:47:51;7.20;99.90
33699;DHT22;20032;52.436;13.312;2023-04-30T02:50:16;7.10;99.90
33699;DHT22;20032;52.436;13.312;2023-04-30T02:52:44;7.00;99.90
33699;DHT22;20032;52.436;13.312;2023-04-30T02:55:10;6.90;99.90
33699;DHT22;20032;52.436;13.312;2023-04-30T02:57:35;6.90;99.90
33699;DHT22;20032;52.436;13.312;2023-04-30T03:00:01;6.80;99.90
33699;DHT22;20032;52.436;13.312;2023-04-30T03:02:27;6.80;99.90
33699;DHT22;20032;52.436;13.312;2023-04-30T03:04:52;6.80;99.90
33699;DHT22;20032;52.436;13.312;2023-04-30T03:07:18;6.80;99.90
33699;DHT22;20032;52.436;13.312;2023-04-30T03:09:43;6.80;99.90
33699;DHT22;20032;52.436;13.312;2023-04-30T03:12:09;6.80;99.90
33699;DHT22;20032;52.436;13.312;2023-04-30T03:14:34;6.70;99.90
33699;DHT22;20032;52.436;13.312;2023-04-30T03:17:00;6.70;99.90
33699;DHT22;20032;52.436;13.312;2023-04-30T03:19:25;6.60;99.90
33699;DHT22;20032;52.436;13.312;2023-04-30T03:21:51;6.50;99.90
33699;DHT22;20032;52.436;13.312;2023-04-30T03:24:17;6.50;99.90
33699;DHT22;20032;52.436;13.312;2023-04-30T03:26:43;6.60;99.90
33699;DHT22;20032;52.436;13.312;2023-04-30T03:29:08;6.60;99.90
33699;DHT22;20032;52.436;13.312;2023-04-30T03:31:34;6.50;99.90
33699;DHT22;20032;52.436;13.312;2023-04-30T03:33:59;6.40;99.90
33699;DHT22;20032;52.436;13.312;2023-04-30T03:36:25;6.40;99.90
33699;DHT22;20032;52.436;13.312;2023-04-30T03:38:51;6.40;99.90
33699;DHT22;20032;52.436;13.312;2023-04-30T03:41:17;6.50;99.90
33699;DHT22;20032;52.436;13.312;2023-04-30T03:43:43;6.40;99.90
33699;DHT22;20032;52.436;13.312;2023-04-30T03:46:08;6.50;99.90
33699;DHT22;20032;52.436;13.312;2023-04-30T03:48:34;6.30;99.90
33699;DHT22;20032;52.436;13.312;2023-04-30T03:51:01;6.30;99.90
33699;DHT22;20032;52.436;13.312;2023-04-30T03:53:26;6.30;99.90
33699;DHT22;20032;52.436;13.312;2023-04-30T03:55:52;6.40;99.90
33699;DHT22;20032;52.436;13.312;2023-04-30T03:58:19;6.40;99.90
33699;DHT22;20032;52.436;13.312;2023-04-30T04:00:46;6.30;99.90
33699;DHT22;20032;52.436;13.312;2023-04-30T04:03:12;6.40;99.90
33699;DHT22;20032;52.436;13.312;2023-04-30T04:05:38;6.40;99.90
33699;DHT22;20032;52.436;13.312;2023-04-30T04:08:05;6.30;99.90
33699;DHT22;20032;52.436;13.312;2023-04-30T04:10:31;6.30;99.90
33699;DHT22;20032;52.436;13.312;2023-04-30T04:12:57;6.30;99.90
33699;DHT22;20032;52.436;13.312;2023-04-30T04:15:22;6.30;99.90
33699;DHT22;20032;52.436;13.312;2023-04-30T04:17:48;6.40;99.90
33699;DHT22;20032;52.436;13.312;2023-04-30T04:20:13;6.40;99.90
33699;DHT22;20032;52.436;13.312;2023-04-30T04:22:39;6.30;99.90
33699;DHT22;20032;52.436;13.312;2023-04-30T04:25:05;6.30;99.90
33699;DHT22;20032;52.436;13.312;2023-04-30T04:27:31;6.40;99.90
33699;DHT22;20032;52.436;13.312;2023-04-30T04:29:56;6.40;99.90
33699;DHT22;20032;52.436;13.312;2023-04-30T04:32:22;6.40;99.90
33699;DHT22;20032;52.436;13.312;2023-04-30T04:34:47;6.50;99.90
33699;DHT22;20032;52.436;13.312;2023-04-30T04:37:13;6.50;99.90
33699;DHT22;20032;52.436;13.312;2023-04-30T04:39:39;6.40;99.90
33699;DHT22;20032;52.436;13.312;2023-04-30T04:42:05;6.30;99.90
33699;DHT22;20032;52.436;13.312;2023-04-30T04:44:30;6.40;99.90
33699;DHT22;20032;52.436;13.312;2023-04-30T04:46:56;6.40;99.90
33699;DHT22;20032;52.436;13.312;2023-04-30T04:49:22;6.50;99.90
33699;DHT22;20032;52.436;13.312;2023-04-30T04:51:47;6.50;99.90
33699;DHT22;20032;52.436;13.312;2023-04-30T04:54:13;6.50;99.90
33699;DHT22;20032;52.436;13.312;2023-04-30T04:56:38;6.50;99.90
33699;DHT22;20032;52.436;13.312;2023-04-30T04:59:04;6.60;99.90
33699;DHT22;20032;52.436;13.312;2023-04-30T05:01:29;6.60;99.90
33699;DHT22;20032;52.436;13.312;2023-04-30T05:03:55;6.50;99.90
33699;DHT22;20032;52.436;13.312;2023-04-30T05:06:20;6.60;99.90
33699;DHT22;20032;52.436;13.312;2023-04-30T05:08:46;6.50;99.90
33699;DHT22;20032;52.436;13.312;2023-04-30T05:11:11;6.60;99.90
33699;DHT22;20032;52.436;13.312;2023-04-30T05:13:37;6.60;99.90
33699;DHT22;20032;52.436;13.312;2023-04-30T05:16:02;6.60;99.90
33699;DHT22;20032;52.436;13.312;2023-04-30T05:18:28;6.60;99.90
33699;DHT22;20032;52.436;13.312;2023-04-30T05:20:53;6.60;99.90
33699;DHT22;20032;52.436;13.312;2023-04-30T05:23:19;6.70;99.90
33699;DHT22;20032;52.436;13.312;2023-04-30T05:25:44;6.70;99.90
33699;DHT22;20032;52.436;13.312;2023-04-30T05:28:10;6.70;99.90
33699;DHT22;20032;52.436;13.312;2023-04-30T05:30:36;6.70;99.90
33699;DHT22;20032;52.436;13.312;2023-04-30T05:33:01;6.80;99.90
33699;DHT22;20032;52.436;13.312;2023-04-30T05:35:27;6.90;99.90
33699;DHT22;20032;52.436;13.312;2023-04-30T05:37:52;7.10;99.90
33699;DHT22;20032;52.436;13.312;2023-04-30T05:40:18;7.00;99.90
33699;DHT22;20032;52.436;13.312;2023-04-30T05:42:43;7.00;99.90
33699;DHT22;20032;52.436;13.312;2023-04-30T05:45:09;7.10;99.90
33699;DHT22;20032;52.436;13.312;2023-04-30T05:47:36;7.10;99.90
33699;DHT22;20032;52.436;13.312;2023-04-30T05:50:02;7.10;99.90
33699;DHT22;20032;52.436;13.312;2023-04-30T05:52:27;7.20;99.90
33699;DHT22;20032;52.436;13.312;2023-04-30T05:54:53;7.20;99.90
33699;DHT22;20032;52.436;13.312;2023-04-30T05:57:18;7.30;99.90
33699;DHT22;20032;52.436;13.312;2023-04-30T05:59:44;7.30;99.90
33699;DHT22;20032;52.436;13.312;2023-04-30T06:02:10;7.30;99.90
33699;DHT22;20032;52.436;13.312;2023-04-30T06:04:35;7.40;99.90
33699;DHT22;20032;52.436;13.312;2023-04-30T06:07:00;7.50;99.90
33699;DHT22;20032;52.436;13.312;2023-04-30T06:09:26;7.60;99.90
33699;DHT22;20032;52.436;13.312;2023-04-30T06:11:52;7.70;99.90
33699;DHT22;20032;52.436;13.312;2023-04-30T06:14:17;7.80;99.90
33699;DHT22;20032;52.436;13.312;2023-04-30T06:16:44;7.70;99.90
33699;DHT22;20032;52.436;13.312;2023-04-30T06:19:10;7.80;99.90
33699;DHT22;20032;52.436;13.312;2023-04-30T06:21:35;7.80;99.90
33699;DHT22;20032;52.436;13.312;2023-04-30T06:24:02;7.90;99.90
33699;DHT22;20032;52.436;13.312;2023-04-30T06:26:27;8.00;99.90
33699;DHT22;20032;52.436;13.312;2023-04-30T06:28:53;8.00;99.90
33699;DHT22;20032;52.436;13.312;2023-04-30T06:31:18;8.10;99.90
33699;DHT22;20032;52.436;13.312;2023-04-30T06:33:44;8.10;99.90
33699;DHT22;20032;52.436;13.312;2023-04-30T06:36:09;8.20;99.90
33699;DHT22;20032;52.436;13.312;2023-04-30T06:38:35;8.30;99.90
33699;DHT22;20032;52.436;13.312;2023-04-30T06:41:00;8.40;99.90
33699;DHT22;20032;52.436;13.312;2023-04-30T06:43:26;8.50;99.90
33699;DHT22;20032;52.436;13.312;2023-04-30T06:45:51;8.60;99.90
33699;DHT22;20032;52.436;13.312;2023-04-30T06:48:17;8.50;99.90
33699;DHT22;20032;52.436;13.312;2023-04-30T06:50:42;8.50;99.90
33699;DHT22;20032;52.436;13.312;2023-04-30T06:53:12;8.50;99.90
33699;DHT22;20032;52.436;13.312;2023-04-30T06:55:38;8.60;99.90
33699;DHT22;20032;52.436;13.312;2023-04-30T06:58:05;8.60;99.90
33699;DHT22;20032;52.436;13.312;2023-04-30T07:00:31;8.70;99.90
33699;DHT22;20032;52.436;13.312;2023-04-30T07:02:56;8.70;99.90
33699;DHT22;20032;52.436;13.312;2023-04-30T07:05:25;8.80;99.90
33699;DHT22;20032;52.436;13.312;2023-04-30T07:07:50;8.80;99.90
33699;DHT22;20032;52.436;13.312;2023-04-30T07:10:16;8.70;99.90
33699;DHT22;20032;52.436;13.312;2023-04-30T07:12:43;8.70;99.90
33699;DHT22;20032;52.436;13.312;2023-04-30T07:15:08;8.80;99.90
33699;DHT22;20032;52.436;13.312;2023-04-30T07:17:34;9.00;99.90
33699;DHT22;20032;52.436;13.312;2023-04-30T07:20:00;8.90;99.90
33699;DHT22;20032;52.436;13.312;2023-04-30T07:22:25;9.00;99.90
33699;DHT22;20032;52.436;13.312;2023-04-30T07:24:52;9.10;99.90
33699;DHT22;20032;52.436;13.312;2023-04-30T07:27:17;9.10;99.90
33699;DHT22;20032;52.436;13.312;2023-04-30T07:29:43;9.10;99.90
33699;DHT22;20032;52.436;13.312;2023-04-30T07:32:08;9.10;99.90
33699;DHT22;20032;52.436;13.312;2023-04-30T07:34:34;9.40;99.90
33699;DHT22;20032;52.436;13.312;2023-04-30T07:36:59;9.40;99.90
33699;DHT22;20032;52.436;13.312;2023-04-30T07:39:25;9.50;99.90
33699;DHT22;20032;52.436;13.312;2023-04-30T07:41:51;9.60;99.90
33699;DHT22;20032;52.436;13.312;2023-04-30T07:44:16;9.50;99.90
33699;DHT22;20032;52.436;13.312;2023-04-30T07:46:42;9.40;99.90
33699;DHT22;20032;52.436;13.312;2023-04-30T07:49:07;9.60;99.90
33699;DHT22;20032;52.436;13.312;2023-04-30T07:51:33;9.90;99.90
33699;DHT22;20032;52.436;13.312;2023-04-30T07:53:59;10.10;99.90
33699;DHT22;20032;52.436;13.312;2023-04-30T07:56:25;10.20;99.90
33699;DHT22;20032;52.436;13.312;2023-04-30T07:58:50;10.10;99.90
33699;DHT22;20032;52.436;13.312;2023-04-30T08:01:16;10.10;99.90
33699;DHT22;20032;52.436;13.312;2023-04-30T08:03:41;10.00;99.90
33699;DHT22;20032;52.436;13.312;2023-04-30T08:06:06;10.20;99.90
33699;DHT22;20032;52.436;13.312;2023-04-30T08:08:32;10.40;99.90
33699;DHT22;20032;52.436;13.312;2023-04-30T08:10:57;10.50;99.90
33699;DHT22;20032;52.436;13.312;2023-04-30T08:13:23;10.70;99.90
33699;DHT22;20032;52.436;13.312;2023-04-30T08:15:48;10.70;99.90
33699;DHT22;20032;52.436;13.312;2023-04-30T08:18:14;10.80;99.90
33699;DHT22;20032;52.436;13.312;2023-04-30T08:20:40;10.80;99.90
33699;DHT22;20032;52.436;13.312;2023-04-30T08:23:05;10.90;99.90
33699;DHT22;20032;52.436;13.312;2023-04-30T08:25:31;10.70;99.90
33699;DHT22;20032;52.436;13.312;2023-04-30T08:27:56;10.80;99.90
33699;DHT22;20032;52.436;13.312;2023-04-30T08:30:22;10.90;99.90
33699;DHT22;20032;52.436;13.312;2023-04-30T08:32:48;11.00;99.90
33699;DHT22;20032;52.436;13.312;2023-04-30T08:35:13;11.10;99.90
33699;DHT22;20032;52.436;13.312;2023-04-30T08:37:41;11.10;99.90
33699;DHT22;20032;52.436;13.312;2023-04-30T08:40:07;11.10;99.90
33699;DHT22;20032;52.436;13.312;2023-04-30T08:42:36;11.00;99.90
33699;DHT22;20032;52.436;13.312;2023-04-30T08:45:03;11.00;99.90
33699;DHT22;20032;52.436;13.312;2023-04-30T08:47:29;11.10;99.90
33699;DHT22;20032;52.436;13.312;2023-04-30T08:49:55;11.30;99.90
33699;DHT22;20032;52.436;13.312;2023-04-30T08:52:21;10.90;99.90
33699;DHT22;20032;52.436;13.312;2023-04-30T08:54:47;11.00;99.90
33699;DHT22;20032;52.436;13.312;2023-04-30T08:57:13;11.10;99.90
33699;DHT22;20032;52.436;13.312;2023-04-30T08:59:38;11.20;99.90
33699;DHT22;20032;52.436;13.312;2023-04-30T09:02:04;11.40;99.90
33699;DHT22;20032;52.436;13.312;2023-04-30T09:04:30;11.60;99.90
33699;DHT22;20032;52.436;13.312;2023-04-30T09:06:56;11.60;99.90
33699;DHT22;20032;52.436;13.312;2023-04-30T09:09:28;11.80;99.90
33699;DHT22;20032;52.436;13.312;2023-04-30T09:12:11;12.10;99.90
33699;DHT22;20032;52.436;13.312;2023-04-30T09:14:38;12.40;99.90
33699;DHT22;20032;52.436;13.312;2023-04-30T09:17:05;12.50;99.90
33699;DHT22;20032;52.436;13.312;2023-04-30T09:19:30;12.30;99.90
33699;DHT22;20032;52.436;13.312;2023-04-30T09:21:56;12.40;99.90
33699;DHT22;20032;52.436;13.312;2023-04-30T09:24:23;12.30;99.90
33699;DHT22;20032;52.436;13.312;2023-04-30T09:26:49;12.30;99.90
33699;DHT22;20032;52.436;13.312;2023-04-30T09:29:15;12.30;99.90
33699;DHT22;20032;52.436;13.312;2023-04-30T09:31:44;12.30;99.90
33699;DHT22;20032;52.436;13.312;2023-04-30T09:34:10;12.50;99.90
33699;DHT22;20032;52.436;13.312;2023-04-30T09:36:35;12.90;99.90
33699;DHT22;20032;52.436;13.312;2023-04-30T09:39:09;13.10;99.90
33699;DHT22;20032;52.436;13.312;2023-04-30T09:41:36;13.10;99.50
33699;DHT22;20032;52.436;13.312;2023-04-30T09:44:02;12.90;99.80
33699;DHT22;20032;52.436;13.312;2023-04-30T09:46:30;12.90;99.10
33699;DHT22;20032;52.436;13.312;2023-04-30T09:48:57;12.80;98.70
33699;DHT22;20032;52.436;13.312;2023-04-30T09:51:23;13.00;98.80
33699;DHT22;20032;52.436;13.312;2023-04-30T09:53:50;13.20;98.40
33699;DHT22;20032;52.436;13.312;2023-04-30T09:56:21;13.40;98.10
33699;DHT22;20032;52.436;13.312;2023-04-30T09:58:49;13.70;97.40
33699;DHT22;20032;52.436;13.312;2023-04-30T10:01:16;13.80;97.00
33699;DHT22;20032;52.436;13.312;2023-04-30T10:03:42;13.80;96.80
33699;DHT22;20032;52.436;13.312;2023-04-30T10:06:11;14.10;97.70
33699;DHT22;20032;52.436;13.312;2023-04-30T10:08:40;14.30;95.90
33699;DHT22;20032;52.436;13.312;2023-04-30T10:11:07;14.20;96.90
33699;DHT22;20032;52.436;13.312;2023-04-30T10:13:39;14.20;95.90
33699;DHT22;20032;52.436;13.312;2023-04-30T10:16:11;13.90;95.70
33699;DHT22;20032;52.436;13.312;2023-04-30T10:18:45;14.40;95.30
33699;DHT22;20032;52.436;13.312;2023-04-30T10:21:12;14.70;95.00
33699;DHT22;20032;52.436;13.312;2023-04-30T10:23:39;14.40;95.40
33699;DHT22;20032;52.436;13.312;2023-04-30T10:26:10;14.40;94.60
33699;DHT22;20032;52.436;13.312;2023-04-30T10:28:37;14.60;95.30
33699;DHT22;20032;52.436;13.312;2023-04-30T10:31:03;14.80;93.70
33699;DHT22;20032;52.436;13.312;2023-04-30T10:33:36;14.50;93.80
33699;DHT22;20032;52.436;13.312;2023-04-30T10:36:11;14.40;93.40
33699;DHT22;20032;52.436;13.312;2023-04-30T10:38:37;14.80;94.50
33699;DHT22;20032;52.436;13.312;2023-04-30T10:41:06;15.10;93.40
33699;DHT22;20032;52.436;13.312;2023-04-30T10:43:32;14.80;93.20
33699;DHT22;20032;52.436;13.312;2023-04-30T10:46:01;15.30;94.80
33699;DHT22;20032;52.436;13.312;2023-04-30T10:48:27;15.50;93.30
33699;DHT22;20032;52.436;13.312;2023-04-30T10:50:57;15.70;91.70
33699;DHT22;20032;52.436;13.312;2023-04-30T10:53:23;16.00;91.80
33699;DHT22;20032;52.436;13.312;2023-04-30T10:55:58;16.10;89.60
33699;DHT22;20032;52.436;13.312;2023-04-30T10:58:28;16.00;91.10
33699;DHT22;20032;52.436;13.312;2023-04-30T11:01:14;15.90;91.20
33699;DHT22;20032;52.436;13.312;2023-04-30T11:03:42;16.30;91.20
33699;DHT22;20032;52.436;13.312;2023-04-30T11:06:48;16.40;90.30
33699;DHT22;20032;52.436;13.312;2023-04-30T11:09:15;16.90;91.00
33699;DHT22;20032;52.436;13.312;2023-04-30T11:11:43;17.20;90.10
33699;DHT22;20032;52.436;13.312;2023-04-30T11:14:10;17.40;85.70
33699;DHT22;20032;52.436;13.312;2023-04-30T11:16:36;17.30;86.50
33699;DHT22;20032;52.436;13.312;2023-04-30T11:19:09;17.40;85.00
33699;DHT22;20032;52.436;13.312;2023-04-30T11:27:24;17.30;85.80
33699;DHT22;20032;52.436;13.312;2023-04-30T11:29:50;17.60;82.30
33699;DHT22;20032;52.436;13.312;2023-04-30T11:32:19;17.90;81.10
33699;DHT22;20032;52.436;13.312;2023-04-30T11:34:45;17.70;84.00
33699;DHT22;20032;52.436;13.312;2023-04-30T11:37:12;17.90;85.30
33699;DHT22;20032;52.436;13.312;2023-04-30T11:39:39;18.10;81.80
33699;DHT22;20032;52.436;13.312;2023-04-30T11:42:06;18.50;82.90
33699;DHT22;20032;52.436;13.312;2023-04-30T11:44:32;18.60;80.30
33699;DHT22;20032;52.436;13.312;2023-04-30T11:46:59;18.80;80.40
33699;DHT22;20032;52.436;13.312;2023-04-30T11:49:25;18.90;78.50
33699;DHT22;20032;52.436;13.312;2023-04-30T11:51:51;18.90;79.40
33699;DHT22;20032;52.436;13.312;2023-04-30T11:54:17;18.90;79.30
33699;DHT22;20032;52.436;13.312;2023-04-30T11:56:47;19.10;78.50
33699;DHT22;20032;52.436;13.312;2023-04-30T11:59:13;19.00;78.30
33699;DHT22;20032;52.436;13.312;2023-04-30T12:01:40;19.40;78.40
33699;DHT22;20032;52.436;13.312;2023-04-30T12:04:06;19.50;76.60
33699;DHT22;20032;52.436;13.312;2023-04-30T12:06:32;20.10;75.90
33699;DHT22;20032;52.436;13.312;2023-04-30T12:08:59;20.60;72.20
33699;DHT22;20032;52.436;13.312;2023-04-30T12:11:29;20.60;71.00
33699;DHT22;20032;52.436;13.312;2023-04-30T12:14:00;20.80;68.40
33699;DHT22;20032;52.436;13.312;2023-04-30T12:16:37;20.60;68.90
33699;DHT22;20032;52.436;13.312;2023-04-30T12:19:03;20.70;64.30
33699;DHT22;20032;52.436;13.312;2023-04-30T12:21:29;20.60;67.50
33699;DHT22;20032;52.436;13.312;2023-04-30T12:23:54;21.10;66.20
33699;DHT22;20032;52.436;13.312;2023-04-30T12:26:20;20.80;65.90
33699;DHT22;20032;52.436;13.312;2023-04-30T12:28:47;20.40;66.70
33699;DHT22;20032;52.436;13.312;2023-04-30T12:31:13;20.80;65.80
33699;DHT22;20032;52.436;13.312;2023-04-30T12:33:39;20.80;66.40
33699;DHT22;20032;52.436;13.312;2023-04-30T12:36:09;20.80;65.40
33699;DHT22;20032;52.436;13.312;2023-04-30T12:38:35;20.50;67.50
33699;DHT22;20032;52.436;13.312;2023-04-30T12:41:03;21.00;65.40
33699;DHT22;20032;52.436;13.312;2023-04-30T12:43:29;20.90;68.40
33699;DHT22;20032;52.436;13.312;2023-04-30T12:45:55;20.70;66.70
33699;DHT22;20032;52.436;13.312;2023-04-30T12:48:23;21.20;66.80
33699;DHT22;20032;52.436;13.312;2023-04-30T12:51:04;21.60;65.50
33699;DHT22;20032;52.436;13.312;2023-04-30T12:53:31;21.80;65.00
33699;DHT22;20032;52.436;13.312;2023-04-30T12:56:13;21.90;65.80
33699;DHT22;20032;52.436;13.312;2023-04-30T12:58:42;22.00;64.60
33699;DHT22;20032;52.436;13.312;2023-04-30T13:01:11;22.70;62.90
33699;DHT22;20032;52.436;13.312;2023-04-30T13:03:37;22.50;65.40
33699;DHT22;20032;52.436;13.312;2023-04-30T13:06:03;21.80;64.20
33699;DHT22;20032;52.436;13.312;2023-04-30T13:08:29;21.80;64.40
33699;DHT22;20032;52.436;13.312;2023-04-30T13:10:54;21.80;65.40
33699;DHT22;20032;52.436;13.312;2023-04-30T13:13:20;21.50;64.20
33699;DHT22;20032;52.436;13.312;2023-04-30T13:15:45;22.10;61.50
33699;DHT22;20032;52.436;13.312;2023-04-30T13:18:11;22.30;62.00
33699;DHT22;20032;52.436;13.312;2023-04-30T13:20:38;22.50;59.50
33699;DHT22;20032;52.436;13.312;2023-04-30T13:23:05;23.00;60.90
33699;DHT22;20032;52.436;13.312;2023-04-30T13:25:32;23.00;61.30
33699;DHT22;20032;52.436;13.312;2023-04-30T13:27:58;22.40;62.40
33699;DHT22;20032;52.436;13.312;2023-04-30T13:30:24;22.70;60.10
33699;DHT22;20032;52.436;13.312;2023-04-30T13:32:49;22.70;63.60
33699;DHT22;20032;52.436;13.312;2023-04-30T13:35:16;22.00;64.10
33699;DHT22;20032;52.436;13.312;2023-04-30T13:37:41;21.70;64.40
33699;DHT22;20032;52.436;13.312;2023-04-30T13:40:07;21.90;60.50
33699;DHT22;20032;52.436;13.312;2023-04-30T13:42:35;21.80;63.80
33699;DHT22;20032;52.436;13.312;2023-04-30T13:45:01;22.10;63.60
33699;DHT22;20032;52.436;13.312;2023-04-30T13:47:26;22.00;61.20
33699;DHT22;20032;52.436;13.312;2023-04-30T13:49:51;21.30;61.30
33699;DHT22;20032;52.436;13.312;2023-04-30T13:52:17;21.40;62.90
33699;DHT22;20032;52.436;13.312;2023-04-30T13:54:42;21.60;64.30
33699;DHT22;20032;52.436;13.312;2023-04-30T13:57:08;21.40;65.10
33699;DHT22;20032;52.436;13.312;2023-04-30T13:59:33;21.30;66.40
33699;DHT22;20032;52.436;13.312;2023-04-30T14:01:59;21.70;63.40
33699;DHT22;20032;52.436;13.312;2023-04-30T14:04:24;21.70;61.30
33699;DHT22;20032;52.436;13.312;2023-04-30T14:06:50;21.70;62.80
33699;DHT22;20032;52.436;13.312;2023-04-30T14:09:17;21.50;62.50
33699;DHT22;20032;52.436;13.312;2023-04-30T14:11:42;21.60;66.70
33699;DHT22;20032;52.436;13.312;2023-04-30T14:14:08;21.60;66.60
33699;DHT22;20032;52.436;13.312;2023-04-30T14:16:33;22.10;62.70
33699;DHT22;20032;52.436;13.312;2023-04-30T14:18:59;22.70;61.90
33699;DHT22;20032;52.436;13.312;2023-04-30T14:21:24;23.70;58.20
33699;DHT22;20032;52.436;13.312;2023-04-30T14:23:51;23.30;61.00
33699;DHT22;20032;52.436;13.312;2023-04-30T14:26:17;22.90;59.30
33699;DHT22;20032;52.436;13.312;2023-04-30T14:28:42;22.70;59.50
33699;DHT22;20032;52.436;13.312;2023-04-30T14:31:08;22.20;61.30
33699;DHT22;20032;52.436;13.312;2023-04-30T14:33:34;22.30;61.00
33699;DHT22;20032;52.436;13.312;2023-04-30T14:36:00;22.20;58.70
33699;DHT22;20032;52.436;13.312;2023-04-30T14:38:25;22.80;58.80
33699;DHT22;20032;52.436;13.312;2023-04-30T14:40:51;22.80;58.70
33699;DHT22;20032;52.436;13.312;2023-04-30T14:43:16;22.80;58.80
33699;DHT22;20032;52.436;13.312;2023-04-30T14:45:42;22.10;60.10
33699;DHT22;20032;52.436;13.312;2023-04-30T14:48:10;22.10;60.60
33699;DHT22;20032;52.436;13.312;2023-04-30T14:50:35;22.60;60.20
33699;DHT22;20032;52.436;13.312;2023-04-30T14:53:03;23.30;57.00
33699;DHT22;20032;52.436;13.312;2023-04-30T14:55:29;23.00;57.20
33699;DHT22;20032;52.436;13.312;2023-04-30T14:57:55;23.20;57.20
33699;DHT22;20032;52.436;13.312;2023-04-30T15:00:20;23.20;56.10
33699;DHT22;20032;52.436;13.312;2023-04-30T15:02:46;22.90;56.30
33699;DHT22;20032;52.436;13.312;2023-04-30T15:05:12;23.50;56.60
33699;DHT22;20032;52.436;13.312;2023-04-30T15:07:37;24.00;54.20
33699;DHT22;20032;52.436;13.312;2023-04-30T15:10:03;24.50;54.30
33699;DHT22;20032;52.436;13.312;2023-04-30T15:12:29;23.70;53.60
33699;DHT22;20032;52.436;13.312;2023-04-30T15:14:55;24.00;55.30
33699;DHT22;20032;52.436;13.312;2023-04-30T15:17:21;24.10;55.00
33699;DHT22;20032;52.436;13.312;2023-04-30T15:19:46;23.30;56.70
33699;DHT22;20032;52.436;13.312;2023-04-30T15:22:12;23.30;56.50
33699;DHT22;20032;52.436;13.312;2023-04-30T15:24:37;22.70;57.60
33699;DHT22;20032;52.436;13.312;2023-04-30T15:27:03;22.30;58.00
33699;DHT22;20032;52.436;13.312;2023-04-30T15:29:28;21.50;58.80
33699;DHT22;20032;52.436;13.312;2023-04-30T15:31:54;21.80;57.60